Aviation Digital Data Service (ADDS)

Output produced by METARs form (2013 UTC 30 August 2014)
found at http://www.aviationweather.gov/adds/metars/
 
KUNV 301953Z 19005KT 10SM BKN025 OVC060 24/19 A3015
KUNV 301853Z 19005KT 10SM BKN023 BKN031 BKN085 24/19 A3016
KUNV 301753Z 18005KT 10SM SCT023 BKN033 BKN080 24/18 A3017
KUNV 301653Z 19007KT 10SM OVC031 23/18 A3019
KUNV 301553Z 20006KT 10SM OVC033 22/17 A3021
KUNV 301453Z 20005KT 10SM FEW033 BKN065 21/16 A3021
KUNV 301353Z 21008KT 10SM SKC 20/15 A3022
KUNV 301253Z 00000KT 10SM SKC 18/14 A3022
KUNV 301153Z 00000KT 10SM SKC 16/13 A3022
KUNV 301053Z 00000KT 10SM SKC 13/11 A3021
KUNV 300953Z 00000KT 10SM SKC 13/12 A3020
KUNV 300935Z AUTO 00000KT 10SM SCT065 SCT075 SCT095 14/12 A3020 RMK AO2 T01380118
KUNV 300915Z AUTO 00000KT 10SM SCT075 SCT095 14/12 A3020 RMK AO2 T01350116
KUNV 300855Z AUTO 00000KT 10SM SCT095 14/12 A3019 RMK AO2 T01390116
KUNV 300835Z AUTO 00000KT 10SM SCT095 15/12 A3018 RMK AO2 T01480117
KUNV 300815Z AUTO 00000KT 10SM SCT075 SCT095 15/12 A3019 RMK AO2 T01530116
KUNV 300755Z AUTO 00000KT 10SM SCT080 SCT110 15/12 A3020 RMK AO2 T01540116
KUNV 300735Z AUTO 00000KT 10SM SCT110 15/12 A3020 RMK AO2 T01460115
KUNV 300715Z AUTO 00000KT 10SM CLR 14/11 A3020 RMK AO2 T01420114
KUNV 300655Z AUTO 00000KT 10SM SCT110 15/12 A3020 RMK AO2 T01510115
KUNV 300635Z AUTO 00000KT 10SM SCT110 15/12 A3020 RMK AO2 T01530115
KUNV 300615Z AUTO 00000KT 10SM SCT070 SCT090 15/12 A3020 RMK AO2 T01520115
KUNV 300555Z AUTO 27003KT 10SM SCT070 SCT100 15/12 A3021 RMK AO2 T01510116 10191 20149
KUNV 300535Z AUTO 27003KT 10SM CLR 15/12 A3021 RMK AO2 T01530116
KUNV 300515Z AUTO 00000KT 10SM SCT070 SCT090 16/12 A3020 RMK AO2 T01550115
KUNV 300455Z AUTO 00000KT 10SM CLR 16/12 A3020 RMK AO2 T01550117
KUNV 300435Z AUTO 00000KT 10SM SCT060 SCT070 SCT085 16/12 A3020 RMK AO2 T01560118
KUNV 300415Z AUTO 27004KT 10SM SCT060 SCT070 SCT085 15/12 A3020 RMK AO2 T01510117
KUNV 300355Z AUTO 00000KT 10SM SCT060 SCT070 SCT085 16/12 A3021 RMK AO2 T01580117 402270090
KUNV 300335Z AUTO 00000KT 10SM SCT060 SCT070 SCT080 16/12 A3020 RMK AO2 T01560120
KUNV 300315Z AUTO 00000KT 10SM SCT065 SCT080 16/12 A3021 RMK AO2 T01600120
KUNV 300255Z AUTO 00000KT 10SM CLR 15/12 A3020 RMK AO2 T01540121
KUNV 300235Z AUTO 29003KT 10SM CLR 16/12 A3021 RMK AO2 T01570124
KUNV 300215Z AUTO 00000KT 10SM CLR 18/12 A3021 RMK AO2 T01780115
KUNV 300155Z AUTO 00000KT 10SM SCT110 18/12 A3020 RMK AO2 T01760116
KUNV 300053Z 00000KT 10SM SCT095 18/12 A3019
KUNV 292353Z 00000KT 10SM FEW030 19/12 A3018
KUNV 292253Z VRB04KT 10SM SKC 21/12 A3018
KUNV 292153Z VRB05KT 10SM SKC 22/13 A3018
KUNV 292053Z VRB05KT 10SM SKC 22/13 A3017
KUNV 291953Z VRB05KT 10SM SKC 23/12 A3018
KUNV 291853Z VRB05KT 10SM SKC 22/11 A3019
KUNV 291753Z 11007KT 10SM FEW070 21/11 A3021
KUNV 291653Z 10007KT 10SM FEW070 20/10 A3021
KUNV 291553Z VRB04KT 10SM FEW100 19/12 A3023
KUNV 291453Z VRB04KT 10SM SKC 17/12 A3024
KUNV 291353Z 00000KT 10SM SKC 13/11 A3025
KUNV 291253Z 00000KT 10SM SKC 13/11 A3022
KUNV 291153Z 00000KT 10SM SKC 11/10 A3022
KUNV 291053Z 00000KT 10SM SKC 10/09 A3022
KUNV 290953Z 00000KT 10SM SKC 09/08 A3020
KUNV 290935Z AUTO 00000KT 10SM SCT100 10/09 A3019 RMK AO2 T00950085
KUNV 290915Z AUTO 29003KT 10SM CLR 10/09 A3018 RMK AO2 T00970093
KUNV 290855Z AUTO 00000KT 10SM SCT085 10/09 A3017 RMK AO2 T01000092
KUNV 290835Z AUTO 00000KT 10SM SCT075 SCT085 SCT100 10/10 A3017 RMK AO2 T01000095
KUNV 290815Z AUTO 00000KT 10SM SCT065 SCT085 SCT110 10/09 A3017 RMK AO2 T00980093